Time;durP1;ratioP1;P1;durP2;ratioP2;P2;SDS_P1;SDS_P2;PMS_P1;PMS_P2;Temp;Humidity;BMP_temperature;BMP_pressure;BME280_temperature;BME280_humidity;BME280_pressure;Samples;Min_cycle;Max_cycle;Signal;HPM_P1;HPM_P2
2022/03/31 00:00:56;;;;;;;1.80;1.30;;;23.60;51.30;;;;;;5004593;28;20483;-87
2022/03/31 00:03:24;;;;;;;1.40;1.20;;;23.60;51.40;;;;;;5002540;28;20439;-87
2022/03/31 00:05:50;;;;;;;1.43;1.10;;;23.60;51.40;;;;;;5020512;28;20420;-87
2022/03/31 00:08:18;;;;;;;1.37;1.10;;;23.60;51.40;;;;;;5030250;28;20458;-88
2022/03/31 00:10:53;;;;;;;1.60;1.40;;;23.60;51.40;;;;;;5030993;28;20430;-87
2022/03/31 00:13:28;;;;;;;1.30;1.20;;;23.60;51.40;;;;;;5031624;28;20487;-86
2022/03/31 00:15:56;;;;;;;1.33;1.23;;;23.60;52.00;;;;;;5031814;28;20943;-87
2022/03/31 00:18:22;;;;;;;1.73;1.30;;;23.60;51.40;;;;;;5030263;28;20527;-87
2022/03/31 00:20:48;;;;;;;1.40;1.30;;;23.60;51.40;;;;;;5014112;28;20411;-87
2022/03/31 00:23:13;;;;;;;2.07;1.57;;;23.60;51.40;;;;;;5031439;28;20439;-87
2022/03/31 00:25:39;;;;;;;1.63;1.37;;;23.60;51.40;;;;;;5030111;28;20234;-87
2022/03/31 00:31:27;;;;;;;1.20;1.10;;;23.60;51.40;;;;;;5030903;28;20207;-87
2022/03/31 00:37:16;;;;;;;1.63;1.13;;;23.50;51.30;;;;;;5030185;28;20198;-87
2022/03/31 00:39:42;;;;;;;1.30;1.10;;;23.50;51.30;;;;;;5029541;28;20451;-87
2022/03/31 00:42:10;;;;;;;1.40;1.13;;;23.50;51.40;;;;;;5029232;28;20172;-88
2022/03/31 00:44:36;;;;;;;1.40;1.30;;;23.50;51.30;;;;;;5029811;28;20407;-88
2022/03/31 00:47:02;;;;;;;1.90;1.43;;;23.50;51.30;;;;;;5029028;28;20486;-87
2022/03/31 00:49:29;;;;;;;1.47;1.37;;;23.50;51.50;;;;;;5029628;28;20439;-88
2022/03/31 00:51:55;;;;;;;1.20;1.10;;;23.50;51.30;;;;;;5029851;28;20450;-87
2022/03/31 00:54:27;;;;;;;1.53;1.20;;;23.50;51.30;;;;;;5029776;28;20503;-88
2022/03/31 00:56:55;;;;;;;1.83;1.37;;;23.50;51.20;;;;;;5028457;28;20427;-88
2022/03/31 00:59:21;;;;;;;1.90;1.30;;;23.50;51.30;;;;;;5028413;28;20486;-88
2022/03/31 01:05:11;;;;;;;1.40;1.20;;;23.50;51.20;;;;;;5029325;28;20391;-88
2022/03/31 01:07:37;;;;;;;1.60;1.00;;;23.50;51.30;;;;;;5029671;28;20435;-88
2022/03/31 01:13:25;;;;;;;1.30;1.00;;;23.50;51.30;;;;;;5030019;28;20386;-88
2022/03/31 01:16:29;;;;;;;1.50;1.33;;;23.40;51.20;;;;;;5028942;28;20443;-87
2022/03/31 01:18:55;;;;;;;1.23;1.10;;;23.40;51.20;;;;;;5029841;28;20453;-88
2022/03/31 01:21:21;;;;;;;1.57;1.20;;;23.40;51.30;;;;;;5028800;28;20423;-87
2022/03/31 01:23:47;;;;;;;1.47;1.20;;;23.40;51.30;;;;;;5028739;28;20194;-87
2022/03/31 01:26:13;;;;;;;1.50;1.00;;;23.40;51.20;;;;;;5029237;28;20196;-88
2022/03/31 01:28:43;;;;;;;1.70;1.40;;;23.40;51.20;;;;;;5030268;28;20824;-88
2022/03/31 01:31:10;;;;;;;2.30;1.23;;;23.40;51.20;;;;;;5018583;28;20436;-88
2022/03/31 01:33:37;;;;;;;1.40;1.10;;;23.40;51.20;;;;;;5008492;28;20476;-88
2022/03/31 01:36:04;;;;;;;1.37;1.07;;;23.40;51.20;;;;;;5009861;28;20421;-87
2022/03/31 01:38:31;;;;;;;1.50;1.30;;;23.40;51.20;;;;;;5008116;28;20483;-88
2022/03/31 01:40:57;;;;;;;1.23;1.10;;;23.40;51.20;;;;;;5008678;28;20424;-88
2022/03/31 01:43:23;;;;;;;1.73;1.17;;;23.40;51.20;;;;;;5009598;28;20428;-88
2022/03/31 01:45:49;;;;;;;1.23;1.13;;;23.40;51.20;;;;;;5009494;28;20475;-87
2022/03/31 01:48:17;;;;;;;1.40;1.20;;;23.40;51.20;;;;;;5009845;28;20177;-88
2022/03/31 01:50:43;;;;;;;1.33;1.10;;;23.40;51.20;;;;;;5008955;28;20425;-88
2022/03/31 01:53:09;;;;;;;1.20;1.10;;;23.40;51.20;;;;;;5019511;28;20444;-88
2022/03/31 01:55:36;;;;;;;1.50;1.30;;;23.40;51.20;;;;;;5005256;28;20189;-88
2022/03/31 01:58:03;;;;;;;1.83;1.23;;;23.40;51.20;;;;;;4989703;28;20472;-88
2022/03/31 02:00:29;;;;;;;1.20;1.07;;;23.40;51.20;;;;;;4989180;28;20838;-88
2022/03/31 02:02:55;;;;;;;1.13;1.03;;;23.40;51.20;;;;;;5005501;28;20448;-88
2022/03/31 02:05:21;;;;;;;1.40;1.20;;;23.40;51.20;;;;;;5004159;28;20673;-88
2022/03/31 02:07:54;;;;;;;1.30;1.20;;;23.40;51.20;;;;;;5008179;28;20420;-88
2022/03/31 02:10:19;;;;;;;1.30;1.10;;;23.40;51.20;;;;;;5009942;28;20627;-88
2022/03/31 02:12:46;;;;;;;1.17;1.07;;;23.40;51.20;;;;;;5008764;28;20420;-87
2022/03/31 02:15:13;;;;;;;1.40;1.17;;;23.40;51.20;;;;;;5008917;28;20199;-87
2022/03/31 02:17:39;;;;;;;1.97;1.17;;;23.40;51.20;;;;;;5009873;28;20466;-88
2022/03/31 02:20:05;;;;;;;1.50;1.40;;;23.40;51.20;;;;;;5008804;28;20923;-87
2022/03/31 02:22:31;;;;;;;1.80;1.40;;;23.40;51.20;;;;;;5009910;28;20221;-88
2022/03/31 02:24:57;;;;;;;1.30;1.13;;;23.40;51.20;;;;;;5010393;28;20435;-88
2022/03/31 02:27:23;;;;;;;1.40;1.20;;;23.40;51.20;;;;;;5008201;28;20177;-88
2022/03/31 02:29:48;;;;;;;1.50;1.20;;;23.40;51.20;;;;;;5010719;28;20440;-88
2022/03/31 02:32:14;;;;;;;1.50;1.20;;;23.40;51.20;;;;;;5008299;28;20178;-88
2022/03/31 02:34:40;;;;;;;1.90;1.30;;;23.30;51.10;;;;;;5025744;28;20184;-88
2022/03/31 02:40:28;;;;;;;1.50;1.30;;;23.40;51.20;;;;;;5009018;28;20163;-89
2022/03/31 02:42:54;;;;;;;1.33;1.03;;;23.30;51.10;;;;;;5008246;28;20440;-88
2022/03/31 02:45:20;;;;;;;1.20;1.00;;;23.30;51.20;;;;;;5024198;28;20257;-88
2022/03/31 02:47:46;;;;;;;1.50;0.97;;;23.30;51.20;;;;;;5006455;28;20188;-88
2022/03/31 02:50:14;;;;;;;1.47;1.20;;;23.30;51.10;;;;;;5008255;28;20237;-88
2022/03/31 02:55:24;;;;;;;1.10;1.00;;;23.30;51.20;;;;;;5008117;28;20394;-88
2022/03/31 02:57:51;;;;;;;1.67;1.40;;;23.30;51.10;;;;;;5008621;28;20456;-88
2022/03/31 03:00:17;;;;;;;1.33;1.20;;;23.30;51.20;;;;;;5007904;28;20503;-88
2022/03/31 03:02:43;;;;;;;1.10;1.00;;;23.30;51.10;;;;;;5007686;28;20416;-87
2022/03/31 03:05:09;;;;;;;1.40;1.20;;;23.30;51.10;;;;;;5008945;28;20442;-88
2022/03/31 03:07:35;;;;;;;1.37;1.10;;;23.30;51.10;;;;;;5008785;28;20173;-88
2022/03/31 03:10:00;;;;;;;1.30;1.00;;;23.30;51.10;;;;;;5020563;28;20190;-87
2022/03/31 03:12:26;;;;;;;1.20;0.90;;;23.30;51.70;;;;;;5007899;28;20440;-87
2022/03/31 03:14:52;;;;;;;1.20;1.10;;;23.30;51.10;;;;;;4993431;28;20451;-88
2022/03/31 03:17:18;;;;;;;1.27;1.10;;;23.30;51.10;;;;;;5007925;28;20280;-88
2022/03/31 03:19:44;;;;;;;1.30;1.07;;;23.30;51.10;;;;;;5008055;28;20178;-88
2022/03/31 03:22:10;;;;;;;1.00;0.80;;;23.30;51.10;;;;;;4993821;28;20180;-87
2022/03/31 03:24:35;;;;;;;1.20;1.00;;;23.30;51.10;;;;;;5010163;28;20185;-88
2022/03/31 03:30:24;;;;;;;1.40;1.30;;;23.30;51.10;;;;;;5013760;28;20400;-87
2022/03/31 03:32:49;;;;;;;1.53;1.17;;;23.20;51.10;;;;;;5014139;28;20821;-88
2022/03/31 03:38:38;;;;;;;1.40;1.10;;;23.30;51.20;;;;;;5015174;28;20196;-89
2022/03/31 03:41:04;;;;;;;1.20;1.00;;;23.20;51.20;;;;;;5011432;28;20424;-89
2022/03/31 03:43:31;;;;;;;1.20;1.10;;;23.20;51.20;;;;;;5024254;28;20424;-89
2022/03/31 03:45:56;;;;;;;1.40;1.17;;;23.20;51.20;;;;;;5010103;28;20264;-90
2022/03/31 03:48:22;;;;;;;1.30;1.03;;;23.20;51.20;;;;;;5023867;28;20523;-89
2022/03/31 03:54:11;;;;;;;1.53;1.10;;;23.20;51.20;;;;;;5009987;28;20630;-89
2022/03/31 03:56:37;;;;;;;1.30;0.90;;;23.20;51.20;;;;;;5009383;28;20416;-90
2022/03/31 03:59:04;;;;;;;1.60;1.30;;;23.20;51.20;;;;;;5007900;28;20525;-89
2022/03/31 04:01:30;;;;;;;1.33;1.10;;;23.20;51.20;;;;;;5007428;28;20882;-91
2022/03/31 04:03:57;;;;;;;1.20;1.10;;;23.20;51.20;;;;;;5008368;28;20416;-89
2022/03/31 04:06:23;;;;;;;1.20;1.07;;;23.20;51.20;;;;;;5009466;28;20416;-89
2022/03/31 04:08:49;;;;;;;1.03;0.93;;;23.20;51.20;;;;;;5023796;28;20803;-90
2022/03/31 04:11:14;;;;;;;1.00;0.90;;;23.20;51.20;;;;;;5009366;28;20412;-89
2022/03/31 04:13:40;;;;;;;1.27;1.00;;;23.20;51.20;;;;;;5006030;28;20269;-90
2022/03/31 04:16:06;;;;;;;1.10;1.00;;;23.20;51.20;;;;;;4990179;28;20198;-90
2022/03/31 04:18:32;;;;;;;1.00;0.90;;;23.20;51.20;;;;;;4988103;28;20285;-91
2022/03/31 04:21:02;;;;;;;1.37;1.10;;;23.20;51.20;;;;;;4990399;28;20173;-89
2022/03/31 04:23:28;;;;;;;1.40;1.10;;;23.20;51.20;;;;;;4992929;28;20178;-90
2022/03/31 04:25:54;;;;;;;1.50;1.00;;;23.10;51.10;;;;;;4992506;28;20416;-88
2022/03/31 04:28:21;;;;;;;1.30;1.07;;;23.20;51.20;;;;;;4991563;28;20512;-89
2022/03/31 04:30:46;;;;;;;1.13;1.03;;;23.20;51.20;;;;;;4993331;28;20425;-88
2022/03/31 04:33:12;;;;;;;1.70;1.23;;;23.20;51.20;;;;;;4995153;28;20421;-88
2022/03/31 04:35:47;;;;;;;2.07;1.80;;;23.20;51.20;;;;;;4993060;28;20284;-87
2022/03/31 04:38:13;;;;;;;2.13;1.87;;;23.20;51.10;;;;;;4994093;28;20452;-87
2022/03/31 04:40:39;;;;;;;2.03;1.83;;;23.10;50.90;;;;;;4993471;28;20509;-88
2022/03/31 04:50:03;;;;;;;1.80;1.70;;;23.10;50.90;;;;;;5010234;28;20372;-89
2022/03/31 04:52:29;;;;;;;1.90;1.40;;;23.10;51.00;;;;;;5009242;28;20388;-88
2022/03/31 04:54:55;;;;;;;1.73;1.30;;;23.10;51.10;;;;;;5008147;28;20409;-89
2022/03/31 04:57:23;;;;;;;1.40;1.20;;;23.10;51.10;;;;;;5007646;28;20200;-89
2022/03/31 04:59:49;;;;;;;1.43;1.20;;;23.10;51.10;;;;;;4989634;28;20253;-90
2022/03/31 05:02:15;;;;;;;1.70;1.13;;;23.10;51.10;;;;;;4989156;28;20420;-90
2022/03/31 05:04:42;;;;;;;1.50;1.30;;;23.10;51.10;;;;;;4987766;28;20492;-88
2022/03/31 05:07:19;;;;;;;1.90;1.40;;;23.10;51.10;;;;;;4989429;28;20508;-88
2022/03/31 05:09:45;;;;;;;1.60;1.30;;;23.10;51.10;;;;;;4989836;28;20409;-88
2022/03/31 05:12:12;;;;;;;2.23;1.20;;;23.10;51.10;;;;;;5006085;28;20416;-87
2022/03/31 05:14:38;;;;;;;2.03;1.60;;;23.10;51.10;;;;;;5011655;28;21044;-89
2022/03/31 05:21:03;;;;;;;1.33;1.20;;;23.10;51.10;;;;;;5006515;28;20429;-89
2022/03/31 05:23:28;;;;;;;1.57;1.33;;;23.10;51.10;;;;;;5009978;28;20416;-89
2022/03/31 05:25:57;;;;;;;1.50;1.10;;;23.10;51.10;;;;;;5010025;28;20404;-89
2022/03/31 05:28:22;;;;;;;2.17;1.53;;;23.10;51.10;;;;;;5007902;28;20212;-89
2022/03/31 05:30:49;;;;;;;1.90;1.17;;;23.20;51.20;;;;;;5021817;28;20439;-88
2022/03/31 05:33:15;;;;;;;1.33;1.23;;;23.20;51.20;;;;;;5010696;28;20189;-89
2022/03/31 05:35:44;;;;;;;1.30;1.10;;;23.20;51.10;;;;;;5016549;28;20431;-89
2022/03/31 05:41:38;;;;;;;1.53;1.40;;;23.20;51.10;;;;;;5012069;28;20200;-88
2022/03/31 05:44:04;;;;;;;2.30;1.20;;;23.20;51.10;;;;;;5008410;28;20489;-89
2022/03/31 05:46:30;;;;;;;1.40;1.30;;;23.10;51.10;;;;;;5007000;28;20447;-89
2022/03/31 05:48:56;;;;;;;1.30;1.10;;;23.20;51.10;;;;;;5007901;28;20416;-89
2022/03/31 05:51:22;;;;;;;1.70;1.40;;;23.20;51.10;;;;;;5007208;28;20483;-89
2022/03/31 05:53:48;;;;;;;1.50;1.20;;;23.20;51.10;;;;;;5006921;28;20197;-88
2022/03/31 05:56:14;;;;;;;1.27;1.07;;;23.20;51.10;;;;;;4989530;28;20173;-88
2022/03/31 05:58:39;;;;;;;1.70;1.50;;;23.20;51.10;;;;;;4987790;28;20703;-88
2022/03/31 06:01:05;;;;;;;1.30;1.20;;;23.20;51.10;;;;;;4988305;28;20226;-88
2022/03/31 06:03:31;;;;;;;1.27;1.17;;;23.20;51.10;;;;;;4989030;28;20169;-88
2022/03/31 06:05:57;;;;;;;1.50;1.10;;;23.20;51.10;;;;;;4987679;28;20185;-88
2022/03/31 06:08:23;;;;;;;1.27;1.10;;;23.20;51.10;;;;;;4987192;28;20188;-88
2022/03/31 06:10:49;;;;;;;1.47;1.37;;;23.20;51.10;;;;;;4987862;28;20181;-88
2022/03/31 06:13:15;;;;;;;1.30;1.20;;;23.20;51.10;;;;;;4987020;28;20441;-88
2022/03/31 06:15:41;;;;;;;2.07;1.13;;;23.20;51.10;;;;;;4987422;28;20444;-88
2022/03/31 06:18:07;;;;;;;1.63;1.00;;;23.20;51.10;;;;;;4989525;28;20194;-88
2022/03/31 06:20:36;;;;;;;2.63;1.30;;;23.20;51.10;;;;;;4995306;28;20455;-88
2022/03/31 06:23:03;;;;;;;1.97;1.40;;;23.20;51.10;;;;;;5008607;28;20423;-88
2022/03/31 06:25:29;;;;;;;1.30;1.20;;;23.20;51.10;;;;;;5008056;28;20455;-88
2022/03/31 06:27:55;;;;;;;1.20;0.90;;;23.20;51.10;;;;;;5011322;28;20508;-88
2022/03/31 06:30:22;;;;;;;1.50;1.40;;;23.20;51.00;;;;;;5008991;28;20478;-88
2022/03/31 06:32:48;;;;;;;1.17;1.07;;;23.20;51.10;;;;;;5008460;28;20427;-88
2022/03/31 06:35:16;;;;;;;1.50;1.07;;;23.20;51.10;;;;;;5010695;28;20479;-88
2022/03/31 06:37:46;;;;;;;1.10;1.00;;;23.20;51.10;;;;;;5006749;28;20216;-88
2022/03/31 06:40:14;;;;;;;1.47;0.90;;;23.20;51.10;;;;;;5008641;28;20401;-88
2022/03/31 06:42:41;;;;;;;1.23;1.10;;;23.20;51.10;;;;;;5008884;28;20411;-88
2022/03/31 06:45:09;;;;;;;1.30;1.20;;;23.20;51.10;;;;;;5008354;28;20415;-89
2022/03/31 06:47:35;;;;;;;1.10;1.00;;;23.20;51.10;;;;;;5009556;28;20489;-88
2022/03/31 06:50:02;;;;;;;1.10;1.00;;;23.20;51.10;;;;;;5008266;28;20423;-89
2022/03/31 06:52:28;;;;;;;1.27;1.17;;;23.20;51.10;;;;;;5008591;28;20515;-88
2022/03/31 06:54:53;;;;;;;1.30;1.20;;;23.20;51.10;;;;;;5006354;28;20416;-89
2022/03/31 07:00:42;;;;;;;1.70;1.10;;;23.30;51.10;;;;;;5007755;28;20156;-87
2022/03/31 07:03:08;;;;;;;1.10;0.97;;;23.20;51.10;;;;;;5007026;28;20590;-89
2022/03/31 07:05:37;;;;;;;1.20;1.00;;;23.20;51.10;;;;;;5007157;28;20436;-90
2022/03/31 07:08:06;;;;;;;1.50;1.13;;;23.20;51.10;;;;;;5007493;28;20177;-88
2022/03/31 07:10:33;;;;;;;2.10;1.30;;;23.20;51.10;;;;;;5007119;28;20488;-88
2022/03/31 07:13:00;;;;;;;1.30;1.10;;;23.20;51.10;;;;;;5007722;28;20412;-88
2022/03/31 07:15:27;;;;;;;1.30;1.00;;;23.20;51.10;;;;;;5006642;28;20444;-88
2022/03/31 07:17:54;;;;;;;1.20;1.00;;;23.20;51.00;;;;;;5008165;28;20455;-88
2022/03/31 07:20:23;;;;;;;1.30;1.00;;;23.20;51.00;;;;;;5009775;28;20436;-88
2022/03/31 07:22:50;;;;;;;1.97;1.33;;;23.20;51.00;;;;;;4990381;28;20423;-88
2022/03/31 07:25:16;;;;;;;1.70;1.33;;;23.20;51.00;;;;;;5009156;28;20438;-88
2022/03/31 07:27:45;;;;;;;1.20;1.07;;;23.30;51.10;;;;;;5010935;28;20427;-88
2022/03/31 07:30:13;;;;;;;1.50;1.20;;;23.20;51.00;;;;;;5007732;28;20818;-88
2022/03/31 07:32:59;;;;;;;1.87;1.27;;;23.20;51.00;;;;;;5014081;28;20408;-88
2022/03/31 07:35:29;;;;;;;2.40;1.40;;;23.20;51.00;;;;;;5028811;28;20774;-87
2022/03/31 07:37:55;;;;;;;1.43;1.17;;;23.20;51.00;;;;;;5027820;28;20482;-87
2022/03/31 07:40:23;;;;;;;1.50;1.17;;;23.20;51.00;;;;;;5025679;28;20449;-88
2022/03/31 07:42:50;;;;;;;1.40;1.30;;;23.20;51.00;;;;;;5023813;28;20412;-86
2022/03/31 07:45:16;;;;;;;1.20;1.10;;;23.20;51.00;;;;;;5007762;28;20444;-87
2022/03/31 07:47:43;;;;;;;1.43;1.23;;;23.30;51.10;;;;;;5007709;28;20431;-87
2022/03/31 07:50:11;;;;;;;1.20;1.10;;;23.30;51.20;;;;;;5007858;28;20451;-88
2022/03/31 07:52:38;;;;;;;1.57;1.10;;;23.30;51.10;;;;;;5007269;28;20424;-87
2022/03/31 07:55:05;;;;;;;1.43;1.27;;;23.30;51.10;;;;;;5010124;28;20420;-88
2022/03/31 07:57:31;;;;;;;1.80;1.30;;;23.30;51.20;;;;;;5011053;28;20459;-87
2022/03/31 07:59:57;;;;;;;3.40;1.20;;;23.30;51.10;;;;;;5011436;28;20416;-88
2022/03/31 08:02:48;;;;;;;1.40;1.30;;;23.30;51.10;;;;;;5126809;27;20344;-86
2022/03/31 08:05:20;;;;;;;1.40;1.20;;;23.40;51.20;;;;;;5128006;28;20448;-89
2022/03/31 08:07:46;;;;;;;1.30;1.10;;;23.40;51.10;;;;;;5129085;28;20506;-88
2022/03/31 08:13:34;;;;;;;1.23;1.00;;;23.40;51.10;;;;;;5124877;28;20761;-88
2022/03/31 08:19:22;;;;;;;1.10;1.00;;;23.40;51.20;;;;;;5125996;28;20180;-88
2022/03/31 08:21:48;;;;;;;1.50;1.00;;;23.40;51.20;;;;;;5107921;28;20466;-88
2022/03/31 08:24:15;;;;;;;1.20;1.10;;;23.40;51.20;;;;;;5126296;28;20177;-88
2022/03/31 08:26:43;;;;;;;1.33;1.23;;;23.40;51.20;;;;;;5124182;28;21011;-88
2022/03/31 08:29:10;;;;;;;1.27;1.07;;;23.40;51.20;;;;;;5124694;28;20415;-87
2022/03/31 08:31:37;;;;;;;1.30;0.97;;;23.40;51.20;;;;;;5126544;28;20422;-88
2022/03/31 08:34:05;;;;;;;1.57;0.90;;;23.40;51.20;;;;;;5109173;28;20438;-88
2022/03/31 08:36:32;;;;;;;1.30;1.00;;;23.40;51.20;;;;;;5135312;28;20820;-88
2022/03/31 08:38:58;;;;;;;1.10;0.93;;;23.40;51.20;;;;;;5109520;28;20446;-89
2022/03/31 08:41:26;;;;;;;1.10;1.00;;;23.40;51.20;;;;;;5125775;28;20520;-88
2022/03/31 08:43:52;;;;;;;1.20;1.10;;;23.40;51.20;;;;;;5126389;28;20486;-88
2022/03/31 08:46:25;;;;;;;1.30;1.20;;;23.40;51.10;;;;;;5110112;28;20418;-89
2022/03/31 08:48:53;;;;;;;1.73;1.03;;;23.40;51.20;;;;;;5126622;28;20407;-88
2022/03/31 08:51:22;;;;;;;1.17;1.07;;;23.40;51.10;;;;;;5111373;28;20421;-88
2022/03/31 08:53:48;;;;;;;1.50;1.00;;;23.40;51.10;;;;;;5128111;28;20411;-88
2022/03/31 08:56:16;;;;;;;1.53;1.10;;;23.40;51.10;;;;;;5129005;28;20435;-88
2022/03/31 08:58:56;;;;;;;1.10;0.90;;;23.50;51.20;;;;;;5130651;28;20177;-89
2022/03/31 09:01:34;;;;;;;1.47;1.23;;;23.50;51.20;;;;;;5128566;28;20489;-89
2022/03/31 09:04:01;;;;;;;2.60;1.20;;;23.50;51.20;;;;;;5127272;28;20432;-89
2022/03/31 09:06:30;;;;;;;1.60;1.30;;;23.50;51.20;;;;;;5129569;28;20406;-89
2022/03/31 09:09:02;;;;;;;1.57;1.00;;;23.50;51.20;;;;;;5128341;28;20396;-90
2022/03/31 09:11:34;;;;;;;2.80;1.10;;;23.40;51.10;;;;;;5125271;28;20426;-89
2022/03/31 09:14:03;;;;;;;1.27;0.90;;;23.50;51.20;;;;;;5111188;28;20419;-89
2022/03/31 09:16:31;;;;;;;1.93;1.00;;;23.50;51.20;;;;;;5111961;28;20450;-88
2022/03/31 09:19:09;;;;;;;1.67;1.30;;;23.50;51.20;;;;;;5111929;28;20476;-88
2022/03/31 09:21:51;;;;;;;1.73;1.13;;;23.50;51.20;;;;;;5111965;28;20443;-88
2022/03/31 09:24:20;;;;;;;1.40;1.00;;;23.50;51.20;;;;;;5111677;28;20430;-89
2022/03/31 09:26:47;;;;;;;1.57;1.10;;;23.50;51.20;;;;;;5111511;28;20480;-89
2022/03/31 09:29:15;;;;;;;1.77;1.20;;;23.50;51.20;;;;;;5112442;28;20494;-89
2022/03/31 09:31:41;;;;;;;1.30;1.20;;;23.50;51.10;;;;;;5112008;28;20403;-89
2022/03/31 09:34:10;;;;;;;1.63;1.03;;;23.50;51.10;;;;;;5112651;28;20430;-88
2022/03/31 09:36:37;;;;;;;1.30;1.03;;;23.50;51.10;;;;;;5094804;28;20411;-87
2022/03/31 09:39:13;;;;;;;2.07;1.20;;;23.50;51.10;;;;;;5111087;28;20437;-89
2022/03/31 09:41:41;;;;;;;1.20;1.00;;;23.60;51.20;;;;;;5111640;28;20443;-90
2022/03/31 09:44:12;;;;;;;1.10;1.00;;;23.50;51.10;;;;;;5112833;28;20408;-90
2022/03/31 09:46:39;;;;;;;1.10;1.00;;;23.60;51.70;;;;;;5112324;28;20404;-89
2022/03/31 09:49:33;;;;;;;1.50;1.30;;;23.60;51.20;;;;;;5113084;28;20408;-88
2022/03/31 09:52:02;;;;;;;1.30;1.20;;;23.60;51.20;;;;;;5024076;28;20431;-88
2022/03/31 09:54:31;;;;;;;1.10;0.90;;;23.60;51.10;;;;;;5045277;28;20414;-87
2022/03/31 09:56:58;;;;;;;1.20;1.00;;;23.60;51.20;;;;;;5050594;28;20561;-88
2022/03/31 09:59:29;;;;;;;1.37;1.20;;;23.60;51.10;;;;;;5051572;28;20411;-88
2022/03/31 10:01:55;;;;;;;1.40;1.20;;;23.60;51.10;;;;;;5033152;28;20473;-89
2022/03/31 10:04:23;;;;;;;1.77;1.43;;;23.60;51.10;;;;;;5035033;28;20419;-87
2022/03/31 10:06:53;;;;;;;1.33;0.90;;;23.60;51.10;;;;;;5050688;28;20275;-88
2022/03/31 10:09:20;;;;;;;1.33;1.03;;;23.60;51.10;;;;;;5035033;28;20425;-88
2022/03/31 10:12:05;;;;;;;1.10;0.90;;;23.60;51.10;;;;;;5033225;28;20494;-88
2022/03/31 10:14:48;;;;;;;1.10;0.87;;;23.60;51.10;;;;;;5018859;28;20407;-89
2022/03/31 10:17:15;;;;;;;1.33;1.00;;;23.60;51.10;;;;;;5049047;28;20562;-90
2022/03/31 10:19:44;;;;;;;2.07;1.10;;;23.60;51.10;;;;;;5033810;28;20414;-89
2022/03/31 10:25:16;;;;;;;1.30;1.00;;;23.60;51.10;;;;;;5049215;28;20390;-90
2022/03/31 10:27:49;;;;;;;1.70;1.13;;;23.60;51.10;;;;;;5055791;28;20391;-89
2022/03/31 10:30:20;;;;;;;1.80;1.10;;;23.60;51.10;;;;;;5111779;28;20441;-88
2022/03/31 10:33:03;;;;;;;3.83;1.20;;;23.60;51.10;;;;;;5111205;28;20411;-88
2022/03/31 10:38:56;;;;;;;2.83;1.20;;;23.60;51.10;;;;;;5094842;28;20513;-89
2022/03/31 10:41:49;;;;;;;;;;;;;;;;;;;;;
2022/03/31 10:44:18;;;;;;;1.30;1.20;;;23.60;51.10;;;;;;5113574;28;20438;-88
2022/03/31 10:47:10;;;;;;;1.20;1.10;;;23.50;51.10;;;;;;5111875;28;20420;-88
2022/03/31 10:49:37;;;;;;;1.53;1.33;;;23.50;51.10;;;;;;5112062;28;20407;-88
2022/03/31 10:52:17;;;;;;;1.30;1.03;;;23.50;51.10;;;;;;5110760;28;20453;-88
2022/03/31 10:54:44;;;;;;;1.50;1.20;;;23.50;51.10;;;;;;5112576;28;20444;-88
2022/03/31 10:57:18;;;;;;;1.73;1.00;;;23.50;51.10;;;;;;5112734;28;20426;-89
2022/03/31 10:59:49;;;;;;;1.30;1.00;;;23.50;51.10;;;;;;5094641;28;20453;-89
2022/03/31 11:02:21;;;;;;;1.90;1.40;;;23.50;51.10;;;;;;5094200;28;20471;-89
2022/03/31 11:04:48;;;;;;;1.27;1.10;;;23.50;51.10;;;;;;5112186;28;20486;-89
2022/03/31 11:07:18;;;;;;;2.20;1.37;;;23.50;51.10;;;;;;5110839;28;20415;-88
2022/03/31 11:09:45;;;;;;;1.57;1.30;;;23.50;51.10;;;;;;5110761;28;20412;-89
2022/03/31 11:12:26;;;;;;;2.43;1.13;;;23.50;51.10;;;;;;5112463;28;20416;-88
2022/03/31 11:15:08;;;;;;;1.70;1.37;;;23.50;51.70;;;;;;5132062;28;20382;-89
2022/03/31 11:17:35;;;;;;;2.70;1.20;;;23.50;51.10;;;;;;5131176;28;20418;-89
2022/03/31 11:20:14;;;;;;;1.70;1.33;;;23.50;51.10;;;;;;5132449;28;20423;-89
2022/03/31 11:22:49;;;;;;;2.20;1.83;;;23.50;51.10;;;;;;5130872;28;20430;-89
2022/03/31 11:25:17;;;;;;;1.80;1.47;;;23.50;51.10;;;;;;5130645;28;20395;-89
2022/03/31 11:27:59;;;;;;;2.00;1.70;;;23.50;51.20;;;;;;5130591;28;20419;-89
2022/03/31 11:30:32;;;;;;;2.93;1.73;;;23.50;51.70;;;;;;5131525;28;20410;-89
2022/03/31 11:32:58;;;;;;;1.93;1.60;;;23.50;51.20;;;;;;5131321;28;20450;-88
2022/03/31 11:35:28;;;;;;;3.40;2.10;;;23.50;51.20;;;;;;5130118;28;20441;-89
2022/03/31 11:37:57;;;;;;;2.03;1.70;;;23.50;50.80;;;;;;5130734;28;20410;-89
2022/03/31 11:40:43;;;;;;;2.47;1.97;;;23.50;51.20;;;;;;5130122;28;20440;-89
2022/03/31 11:43:12;;;;;;;3.77;1.90;;;23.50;51.20;;;;;;5130499;28;20449;-89
2022/03/31 11:46:06;;;;;;;2.20;2.00;;;23.50;51.20;;;;;;5131513;28;20410;-91
2022/03/31 11:48:35;;;;;;;2.23;1.70;;;23.50;51.20;;;;;;5113813;28;20419;-90
2022/03/31 11:51:04;;;;;;;2.70;1.80;;;23.50;51.20;;;;;;5109591;28;20414;-91
2022/03/31 11:53:49;;;;;;;2.37;1.97;;;23.50;51.30;;;;;;5109819;28;20431;-91
2022/03/31 11:56:22;;;;;;;1.73;1.63;;;23.50;51.30;;;;;;5110034;28;20418;-90
2022/03/31 11:58:55;;;;;;;2.53;1.93;;;23.50;51.30;;;;;;5108974;28;20419;-89
2022/03/31 12:01:31;;;;;;;2.87;1.70;;;23.50;51.30;;;;;;5108912;28;20475;-88
2022/03/31 12:03:57;;;;;;;4.13;2.10;;;23.50;51.30;;;;;;5110679;28;20463;-89
2022/03/31 12:06:23;;;;;;;2.30;2.10;;;23.50;51.30;;;;;;5110721;28;20416;-90
2022/03/31 12:08:49;;;;;;;2.90;2.23;;;23.50;51.30;;;;;;5109818;28;20182;-89
2022/03/31 12:11:15;;;;;;;3.23;2.13;;;23.50;51.30;;;;;;5109045;28;20438;-90
2022/03/31 12:13:51;;;;;;;2.20;1.70;;;23.50;51.30;;;;;;5110372;28;20165;-90
2022/03/31 12:16:17;;;;;;;3.00;2.43;;;23.50;51.20;;;;;;5109607;28;20426;-90
2022/03/31 12:18:44;;;;;;;3.30;2.37;;;23.50;51.30;;;;;;5110855;28;20423;-90
2022/03/31 12:21:10;;;;;;;1.87;1.77;;;23.50;51.30;;;;;;5109259;28;20447;-89
2022/03/31 12:23:47;;;;;;;2.40;2.00;;;23.50;51.30;;;;;;5107955;28;20411;-90
2022/03/31 12:26:22;;;;;;;2.43;2.10;;;23.50;51.30;;;;;;5109749;28;20415;-89
2022/03/31 12:28:50;;;;;;;2.80;2.30;;;23.50;51.30;;;;;;5107622;28;20423;-89
2022/03/31 12:31:35;;;;;;;2.07;1.80;;;23.40;51.20;;;;;;5107396;28;20434;-90
2022/03/31 12:34:03;;;;;;;2.53;2.00;;;23.40;51.20;;;;;;5107636;28;20844;-90
2022/03/31 12:36:42;;;;;;;2.30;2.10;;;23.40;51.20;;;;;;5095975;28;20446;-90
2022/03/31 12:39:08;;;;;;;2.27;2.07;;;23.40;51.20;;;;;;5071049;28;20427;-90
2022/03/31 12:44:56;;;;;;;2.90;2.50;;;23.40;51.20;;;;;;5089294;28;20368;-89
2022/03/31 12:47:25;;;;;;;2.77;2.10;;;23.40;51.20;;;;;;5088478;28;20444;-90
2022/03/31 12:49:51;;;;;;;3.30;2.30;;;23.40;51.30;;;;;;5091345;28;20170;-90
2022/03/31 12:52:19;;;;;;;4.23;2.40;;;23.40;51.30;;;;;;5091554;28;20412;-91
2022/03/31 12:54:57;;;;;;;2.20;1.90;;;23.40;51.30;;;;;;5092187;28;20196;-90
2022/03/31 12:57:25;;;;;;;3.10;1.80;;;23.40;51.30;;;;;;5090984;28;20416;-89
2022/03/31 13:00:06;;;;;;;2.30;2.10;;;23.40;51.30;;;;;;5091791;28;20404;-90
2022/03/31 13:02:36;;;;;;;1.50;1.40;;;23.40;51.30;;;;;;5090913;28;20997;-91
2022/03/31 13:05:03;;;;;;;2.20;1.67;;;23.40;51.30;;;;;;5090985;28;20462;-90
2022/03/31 13:07:29;;;;;;;3.10;2.63;;;23.40;51.30;;;;;;5091314;28;20479;-90
2022/03/31 13:09:58;;;;;;;3.17;2.53;;;23.40;51.30;;;;;;5091354;28;20424;-90
2022/03/31 13:12:25;;;;;;;1.73;1.63;;;23.40;51.30;;;;;;5111016;28;20423;-90
2022/03/31 13:14:51;;;;;;;2.77;2.50;;;23.40;51.30;;;;;;5111767;28;20426;-90
2022/03/31 13:17:19;;;;;;;4.00;2.27;;;23.40;51.30;;;;;;5110932;28;20412;-89
2022/03/31 13:19:47;;;;;;;3.43;2.30;;;23.40;51.30;;;;;;5111065;28;20498;-91
2022/03/31 13:22:20;;;;;;;3.00;2.20;;;23.40;51.30;;;;;;5112304;28;20443;-91
2022/03/31 13:24:54;;;;;;;2.03;1.80;;;23.40;51.30;;;;;;5109560;28;20399;-88
2022/03/31 13:27:21;;;;;;;1.70;1.60;;;23.40;51.30;;;;;;5109061;28;20441;-88
2022/03/31 13:29:48;;;;;;;3.17;2.87;;;23.40;51.30;;;;;;5107956;28;20431;-89
2022/03/31 13:32:25;;;;;;;2.83;2.17;;;23.40;51.30;;;;;;5107436;28;20422;-90
2022/03/31 13:34:51;;;;;;;2.73;2.27;;;23.40;51.30;;;;;;5108720;28;20425;-89
2022/03/31 13:37:19;;;;;;;2.57;2.17;;;23.40;51.30;;;;;;5108480;28;20420;-89
2022/03/31 13:39:49;;;;;;;2.13;1.80;;;23.40;51.30;;;;;;5108665;28;20264;-89
2022/03/31 13:42:16;;;;;;;2.10;1.90;;;23.40;51.30;;;;;;5109607;28;20451;-88
2022/03/31 13:44:43;;;;;;;2.30;2.10;;;23.40;51.30;;;;;;5108352;28;20423;-89
2022/03/31 13:47:10;;;;;;;2.33;1.70;;;23.40;51.30;;;;;;5108805;28;20469;-89
2022/03/31 13:49:36;;;;;;;2.13;1.83;;;23.40;51.30;;;;;;5125949;28;20493;-89
2022/03/31 13:52:03;;;;;;;2.30;1.80;;;23.40;51.30;;;;;;5107800;28;20458;-88
2022/03/31 13:54:29;;;;;;;2.67;2.10;;;23.50;51.40;;;;;;5108478;28;20412;-88
2022/03/31 13:56:59;;;;;;;2.63;1.77;;;23.50;51.40;;;;;;5107413;28;20403;-89
2022/03/31 14:02:16;;;;;;;3.00;2.00;;;23.50;51.40;;;;;;5128951;28;20469;-89